Cooks, MI (49817)

08:22 PM EDT del 20 Agosto 2014 (GMT -0400)
On the Tip of Big Bay de Noc | Change Station
CLOSE
Current Station
Stazione meteo personale
Location: Garden Corners, MI
Altitudine: 587 ft
Stazioni meteo nelle vicinanze

Alt. 587 ft 45.90 °N, 86.55 °W | Updated 7 seconds ago

Overcast
Coperto
66.4 °F
Sembra 66.4 °F
N
0.0
Vento Variabile Vento da Nord
Gusts 0.0 mph

Oggi
Massima -- | Minima -- °F
--% Possibilità di precip.
Ieri
Massima -- | Minima -- °F
Precip. -- in
6:52 AM 8:45 PM
Luna calante, 18% visible
Pressione 29.92 in
Visibilità 10.0 miglia
Nuvole Molto nuvoloso 1700 ft
Coperto 5500 ft
Punto di rugiada 64 °F
Umidità 92%
Piovosità 0.07 in
Spessore del manto nevoso Non disponibile.
Raggi UV 0 fuori da 12
Polline 7.80 fuori da 12
Ozono Buono
PM2.5 Buono
Flu Activity Non disponibile.
METAR KISQ 210014Z AUTO 33004KT 10SM BKN017 OVC055 18/16 A2992 RMK AO2 T01780160

More Conditions Fewer Conditions

Pressione 29.92 in
Visibilità 10.0 miglia
Nuvole Molto nuvoloso 1700 ft
Coperto 5500 ft
Punto di rugiada 64 °F
Umidità 92%
Piovosità 0.07 in
Spessore del manto nevoso Non disponibile.
Raggi UV 0 fuori da 12
Polline 7.80 fuori da 12
Ozono Buono
PM2.5 Buono
Flu Activity Non disponibile.
METAR KISQ 210014Z AUTO 33004KT 10SM BKN017 OVC055 18/16 A2992 RMK AO2 T01780160

More Conditions Fewer Conditions

10-Day Weather Forecast

Almanac

Astronomia

Aug. 20, 2014 Alba Tramonto
Ora attuale 06:52 EDT 20:45 EDT
Crepuscolo civile 06:19 EDT 21:17 EDT
Crepuscolo nautico 05:40 EDT 21:56 EDT
Crepuscolo astronomico 04:57 EDT 22:39 EDT
Luna 02:25 EDT (8/20) 17:36 EDT (8/20)
Estensione della luce visibile 14h 57m
Lunghezza del giorno
13h 53m
Tomorrow will be 2m 59s shorter.
Luna calante, 18% of the Moon is Illuminated
Oggi
Luna calante
Ago 25
Nuovo
Set 2
Primo quarto
Set 8
Luna piena
Set 15
Ultimo quarto

Gli estremi di oggi

State Highs State Lows

Community

WunderPhotos

Upload Photos

1,745,807 foto caricate!

WunderBlogs® & News

Nearby

Qualità dell'aria

  Qualità dell'aria Indice AQ Inquinante
Ieri Buono
OZONE
Ieri Buono
PM2.5
Attuale Buono
PM2.5
Attuale Buono
OZONE
Mercoledì Buono
OZONE
Mercoledì Buono
PM2.5
Giovedì Buono
OZONE
Giovedì Buono
PM2.5

Profondità neve

Stazione Profondità Altitudine
Non sono state evidenziate nuove nevicate

Attività sismica

Città  Distanza Mag. Data & Ora
Non sono state riportate attività sismiche nelle vicinanze.
Minimo Magnitudo Mostrato è 2.5.

Temperature delle acque costiere

Località Temperatura
Menominee, MI 70.0 °F
Port Inland, MI 60.1 °F

Stazioni meteo nelle vicinanze